createdAt,value
2022-12-23T00:02:16.953Z,7.13
2022-12-23T00:05:20.464Z,7.00
2022-12-23T00:08:24.304Z,6.19
2022-12-23T00:11:28.340Z,6.19
2022-12-23T00:14:31.611Z,5.87
2022-12-23T00:17:36.257Z,4.96
2022-12-23T00:20:39.635Z,5.32
2022-12-23T00:23:46.018Z,4.90
2022-12-23T00:26:49.402Z,4.50
2022-12-23T00:29:52.554Z,4.44
2022-12-23T00:32:55.833Z,4.57
2022-12-23T00:35:59.566Z,4.25
2022-12-23T00:39:02.771Z,4.15
2022-12-23T00:42:05.943Z,3.44
2022-12-23T00:45:10.064Z,3.57
2022-12-23T00:48:13.575Z,3.31
2022-12-23T00:51:16.880Z,3.37
2022-12-23T00:54:20.142Z,3.00
2022-12-23T00:57:25.743Z,2.50
2022-12-23T01:00:28.964Z,2.30
2022-12-23T01:03:32.822Z,2.15
2022-12-23T01:06:36.784Z,1.84
2022-12-23T01:09:40.155Z,1.49
2022-12-23T01:12:43.336Z,1.58
2022-12-23T01:15:46.838Z,1.06
2022-12-23T01:18:50.095Z,0.76
2022-12-23T01:21:53.380Z,0.73
2022-12-23T01:24:56.719Z,0.91
2022-12-23T01:28:00.748Z,0.90
2022-12-23T01:31:06.306Z,1.00
2022-12-23T01:34:12.517Z,0.83
2022-12-23T01:37:15.878Z,0.73
2022-12-23T01:40:19.265Z,0.65
2022-12-23T01:43:23.379Z,0.79
2022-12-23T01:46:26.696Z,0.74
2022-12-23T01:49:29.966Z,0.45
2022-12-23T01:52:39.068Z,0.06
2022-12-23T01:55:48.572Z,0.20
2022-12-23T01:59:07.692Z,0.24
2022-12-23T02:02:11.188Z,0.18
2022-12-23T02:05:14.945Z,0.34
2022-12-23T02:08:18.868Z,0.05
2022-12-23T02:11:43.212Z,-0.12
2022-12-23T02:15:13.351Z,-0.05
2022-12-23T02:19:01.295Z,0.21
2022-12-23T02:22:24.289Z,0.17
2022-12-23T02:25:41.045Z,-0.29
2022-12-23T02:29:05.317Z,-0.33
2022-12-23T02:32:11.262Z,-0.41
2022-12-23T02:35:27.736Z,-0.47
2022-12-23T02:38:35.760Z,-0.34
2022-12-23T02:41:50.036Z,-0.55
2022-12-23T02:45:02.331Z,-0.68
2022-12-23T02:48:20.739Z,-0.57
2022-12-23T02:51:28.568Z,-0.67
2022-12-23T02:54:34.373Z,-1.02
2022-12-23T02:57:40.135Z,-0.74
2022-12-23T03:00:44.525Z,-0.91
2022-12-23T03:03:48.746Z,-0.61
2022-12-23T03:06:56.042Z,-0.94
2022-12-23T03:10:27.160Z,-1.17
2022-12-23T03:14:11.373Z,-1.70
2022-12-23T03:17:48.865Z,-1.98
2022-12-23T03:21:12.265Z,-1.70
2022-12-23T03:24:39.385Z,-2.08
2022-12-23T03:27:48.096Z,-2.00
2022-12-23T03:30:55.588Z,-2.04
2022-12-23T03:34:02.813Z,-1.83
2022-12-23T03:37:09.503Z,-2.17
2022-12-23T03:40:42.501Z,-2.20
2022-12-23T03:43:51.263Z,-2.49
2022-12-23T03:47:22.933Z,-2.19
2022-12-23T03:50:26.587Z,-2.34
2022-12-23T03:53:36.595Z,-2.50
2022-12-23T03:56:48.902Z,-2.71
2022-12-23T03:59:52.154Z,-2.68
2022-12-23T04:03:06.986Z,-2.58
2022-12-23T04:06:12.892Z,-2.59
2022-12-23T04:09:21.888Z,-2.87
2022-12-23T04:12:27.045Z,-3.12
2022-12-23T04:15:30.565Z,-2.89
2022-12-23T04:18:33.844Z,-2.90
2022-12-23T04:21:37.201Z,-3.08
2022-12-23T04:24:40.732Z,-3.32
2022-12-23T04:27:46.721Z,-3.32
2022-12-23T04:30:49.903Z,-3.71
2022-12-23T04:33:53.106Z,-3.51
2022-12-23T04:36:58.598Z,-3.45
2022-12-23T04:40:02.037Z,-3.62
2022-12-23T04:43:05.325Z,-3.67
2022-12-23T04:46:10.697Z,-3.50
2022-12-23T04:49:14.000Z,-3.57
2022-12-23T04:52:17.332Z,-3.74
2022-12-23T04:55:22.562Z,-3.68
2022-12-23T04:58:25.811Z,-3.96
2022-12-23T05:01:31.553Z,-3.76
2022-12-23T05:04:34.949Z,-3.67
2022-12-23T05:07:38.245Z,-3.80
2022-12-23T05:10:41.585Z,-4.01
2022-12-23T05:13:44.812Z,-3.98
2022-12-23T05:16:48.681Z,-4.21
2022-12-23T05:19:51.970Z,-4.23
2022-12-23T05:22:55.347Z,-4.37
2022-12-23T05:25:58.568Z,-4.47
2022-12-23T05:29:01.790Z,-4.72
2022-12-23T05:32:05.379Z,-4.24
2022-12-23T05:35:09.032Z,-4.41
2022-12-23T05:38:12.279Z,-5.01
2022-12-23T05:41:17.277Z,-4.65
2022-12-23T05:44:20.477Z,-4.38
2022-12-23T05:47:27.049Z,-4.43
2022-12-23T05:50:30.563Z,-4.98
2022-12-23T05:53:33.785Z,-4.95
2022-12-23T05:56:37.049Z,-5.17
2022-12-23T05:59:40.442Z,-5.11
2022-12-23T06:02:48.476Z,-5.07
2022-12-23T06:05:55.237Z,-4.98
2022-12-23T06:09:00.029Z,-5.09
2022-12-23T06:12:03.790Z,-5.11
2022-12-23T06:15:07.790Z,-5.00
2022-12-23T06:18:11.122Z,-5.30
2022-12-23T06:21:14.292Z,-5.25
2022-12-23T06:24:17.718Z,-5.33
2022-12-23T06:27:21.848Z,-5.16
2022-12-23T06:30:25.116Z,-5.30
2022-12-23T06:33:31.249Z,-5.27
2022-12-23T06:36:34.437Z,-5.48
2022-12-23T06:39:37.722Z,-5.45
2022-12-23T06:42:40.911Z,-5.22
2022-12-23T06:45:48.070Z,-5.32
2022-12-23T06:48:51.433Z,-5.24
2022-12-23T06:51:54.748Z,-5.17
2022-12-23T06:54:57.958Z,-5.31
2022-12-23T06:58:01.239Z,-5.35
2022-12-23T07:01:04.802Z,-5.51
2022-12-23T07:04:08.148Z,-5.31
2022-12-23T07:07:11.417Z,-5.70
2022-12-23T07:10:16.890Z,-5.79
2022-12-23T07:13:20.119Z,-5.87
2022-12-23T07:16:23.317Z,-5.76
2022-12-23T07:19:26.755Z,-5.69
2022-12-23T07:22:29.961Z,-6.02
2022-12-23T07:25:33.355Z,-6.00
2022-12-23T07:28:36.623Z,-5.82
2022-12-23T07:31:41.349Z,-6.10
2022-12-23T07:34:44.754Z,-6.10
2022-12-23T07:37:52.553Z,-5.99
2022-12-23T07:40:55.779Z,-6.18
2022-12-23T07:44:00.218Z,-6.43
2022-12-23T07:47:03.448Z,-6.33
2022-12-23T07:50:07.926Z,-6.34
2022-12-23T07:53:11.079Z,-6.25
2022-12-23T07:56:14.501Z,-6.36
2022-12-23T07:59:17.747Z,-6.27
2022-12-23T08:02:21.320Z,-6.14
2022-12-23T08:05:24.774Z,-6.49
2022-12-23T08:08:28.171Z,-6.49
2022-12-23T08:11:31.296Z,-6.61
2022-12-23T08:14:34.573Z,-6.72
2022-12-23T08:17:37.958Z,-6.44
2022-12-23T08:20:41.228Z,-6.54
2022-12-23T08:23:45.025Z,-6.63
2022-12-23T08:26:48.248Z,-7.00
2022-12-23T08:29:52.108Z,-6.66
2022-12-23T08:32:55.456Z,-6.69
2022-12-23T08:35:58.669Z,-6.80
2022-12-23T08:39:04.781Z,-7.10
2022-12-23T08:42:08.051Z,-6.67
2022-12-23T08:45:11.693Z,-6.65
2022-12-23T08:48:14.881Z,-6.78
2022-12-23T08:51:20.520Z,-6.56
2022-12-23T08:54:23.757Z,-6.39
2022-12-23T08:57:27.179Z,-6.42
2022-12-23T09:00:30.446Z,-6.11
2022-12-23T09:03:34.526Z,-7.09
2022-12-23T09:06:40.282Z,-6.99
2022-12-23T09:09:43.523Z,-7.16
2022-12-23T09:12:46.958Z,-7.32
2022-12-23T09:15:50.343Z,-7.14
2022-12-23T09:18:53.727Z,-7.15
2022-12-23T09:21:57.002Z,-7.07
2022-12-23T09:25:05.187Z,-6.88
2022-12-23T09:28:10.034Z,-7.16
2022-12-23T09:31:16.113Z,-7.07
2022-12-23T09:34:20.733Z,-7.22
2022-12-23T09:37:24.022Z,-7.00
2022-12-23T09:40:30.595Z,-7.44
2022-12-23T09:43:42.762Z,-7.78
2022-12-23T09:46:53.107Z,-7.64
2022-12-23T09:50:04.601Z,-7.39
2022-12-23T09:53:11.423Z,-7.57
2022-12-23T09:56:23.499Z,-7.45
2022-12-23T09:59:26.651Z,-7.59
2022-12-23T10:02:48.024Z,-7.69
2022-12-23T10:06:08.810Z,-7.98
2022-12-23T10:09:15.396Z,-7.67
2022-12-23T10:12:37.413Z,-7.98
2022-12-23T10:15:46.758Z,-7.74
2022-12-23T10:19:25.368Z,-7.73
2022-12-23T10:22:39.658Z,-7.68
2022-12-23T10:25:50.320Z,-7.26
2022-12-23T10:29:19.922Z,-7.45
2022-12-23T10:32:41.767Z,-7.95
2022-12-23T10:35:57.290Z,-8.07
2022-12-23T10:39:06.882Z,-7.91
2022-12-23T10:42:36.194Z,-7.82
2022-12-23T10:46:00.971Z,-7.94
2022-12-23T10:49:09.196Z,-8.05
2022-12-23T10:52:16.867Z,-7.83
2022-12-23T10:55:33.530Z,-7.91
2022-12-23T10:58:40.810Z,-8.11
2022-12-23T11:01:46.281Z,-7.74
2022-12-23T11:04:51.833Z,-7.75
2022-12-23T11:07:55.915Z,-7.92
2022-12-23T11:11:00.833Z,-8.17
2022-12-23T11:14:04.129Z,-7.80
2022-12-23T11:17:25.482Z,-7.99
2022-12-23T11:20:28.739Z,-7.90
2022-12-23T11:23:35.719Z,-8.06
2022-12-23T11:26:40.184Z,-8.15
2022-12-23T11:29:50.437Z,-7.98
2022-12-23T11:32:53.930Z,-7.70
2022-12-23T11:36:06.633Z,-7.77
2022-12-23T11:39:33.889Z,-7.90
2022-12-23T11:42:37.220Z,-8.39
2022-12-23T11:45:40.778Z,-8.48
2022-12-23T11:48:46.568Z,-8.17
2022-12-23T11:52:06.307Z,-8.55
2022-12-23T11:55:25.055Z,-8.60
2022-12-23T11:58:29.828Z,-8.86
2022-12-23T12:01:33.620Z,-8.56
2022-12-23T12:04:37.188Z,-8.52
2022-12-23T12:07:45.476Z,-8.52
2022-12-23T12:10:52.928Z,-8.37
2022-12-23T12:14:07.014Z,-8.57
2022-12-23T12:17:37.692Z,-8.36
2022-12-23T12:20:44.325Z,-8.64
2022-12-23T12:23:52.702Z,-8.25
2022-12-23T12:27:05.814Z,-8.59
2022-12-23T12:30:16.630Z,-8.76
2022-12-23T12:33:54.886Z,-8.28
2022-12-23T12:37:21.073Z,-8.05
2022-12-23T12:40:43.357Z,-8.46
2022-12-23T12:44:13.088Z,-8.34
2022-12-23T12:47:53.443Z,-8.15
2022-12-23T12:51:28.652Z,-8.69
2022-12-23T12:54:38.488Z,-8.66
2022-12-23T12:57:42.026Z,-8.86
2022-12-23T13:01:02.954Z,-8.78
2022-12-23T13:04:24.285Z,-8.55
2022-12-23T13:08:02.616Z,-8.60
2022-12-23T13:11:44.092Z,-8.60
2022-12-23T13:15:05.746Z,-9.07
2022-12-23T13:18:27.136Z,-8.76
2022-12-23T13:22:06.143Z,-8.84
2022-12-23T13:25:15.516Z,-8.81
2022-12-23T13:28:37.255Z,-8.83
2022-12-23T13:31:43.136Z,-8.54
2022-12-23T13:34:56.518Z,-8.51
2022-12-23T13:38:18.238Z,-8.13
2022-12-23T13:41:33.390Z,-8.99
2022-12-23T13:44:36.193Z,-8.85
2022-12-23T13:47:48.346Z,-8.66
2022-12-23T13:50:57.853Z,-8.41
2022-12-23T13:54:13.413Z,-8.44
2022-12-23T13:57:31.689Z,-8.74
2022-12-23T14:00:38.410Z,-8.83
2022-12-23T14:03:41.784Z,-8.82
2022-12-23T14:06:45.983Z,-8.57
2022-12-23T14:09:55.725Z,-8.72
2022-12-23T14:13:18.171Z,-8.75
2022-12-23T14:16:33.233Z,-8.48
2022-12-23T14:19:54.635Z,-8.49
2022-12-23T14:23:20.277Z,-8.64
2022-12-23T14:26:26.271Z,-8.63
2022-12-23T14:30:07.800Z,-8.39
2022-12-23T14:33:20.038Z,-8.80
2022-12-23T14:36:27.776Z,-8.55
2022-12-23T14:39:35.433Z,-8.31
2022-12-23T14:42:43.524Z,-8.51
2022-12-23T14:45:46.837Z,-8.55
2022-12-23T14:48:50.030Z,-8.19
2022-12-23T14:51:55.395Z,-8.48
2022-12-23T14:55:30.994Z,-8.64
2022-12-23T14:59:07.084Z,-8.01
2022-12-23T15:02:36.553Z,-8.37
2022-12-23T15:05:41.649Z,-8.05
2022-12-23T15:08:45.482Z,-8.02
2022-12-23T15:11:51.549Z,-7.76
2022-12-23T15:15:01.072Z,-7.28
2022-12-23T15:18:06.430Z,-7.24
2022-12-23T15:21:12.848Z,-7.28
2022-12-23T15:24:22.398Z,-7.61
2022-12-23T15:27:27.919Z,-7.52
2022-12-23T15:30:37.451Z,-7.91
2022-12-23T15:37:04.717Z,-7.20
2022-12-23T15:40:22.183Z,-7.28
2022-12-23T15:43:25.385Z,-7.51
2022-12-23T15:46:30.471Z,-7.35
2022-12-23T15:49:34.092Z,-7.43
2022-12-23T15:52:37.372Z,-7.15
2022-12-23T15:55:43.582Z,-7.44
2022-12-23T15:58:46.935Z,-6.89
2022-12-23T16:01:50.339Z,-7.34
2022-12-23T16:04:54.644Z,-7.55
2022-12-23T16:08:29.602Z,-7.28
2022-12-23T16:11:49.648Z,-6.97
2022-12-23T16:15:02.626Z,-6.98
2022-12-23T16:18:23.419Z,-6.27
2022-12-23T16:21:37.317Z,-6.63
2022-12-23T16:24:55.480Z,-6.02
2022-12-23T16:27:59.921Z,-6.57
2022-12-23T16:31:10.164Z,-5.84
2022-12-23T16:34:14.242Z,-6.30
2022-12-23T16:37:17.505Z,-5.75
2022-12-23T16:40:20.723Z,-5.77
2022-12-23T16:43:25.168Z,-6.03
2022-12-23T16:46:29.364Z,-5.78
2022-12-23T16:49:34.376Z,-5.69
2022-12-23T16:52:37.657Z,-6.22
2022-12-23T16:55:48.257Z,-6.39
2022-12-23T16:58:56.870Z,-6.15
2022-12-23T17:02:03.686Z,-6.17
2022-12-23T17:05:07.769Z,-5.84
2022-12-23T17:08:11.452Z,-5.74
2022-12-23T17:11:40.552Z,-4.95
2022-12-23T17:14:43.777Z,-4.78
2022-12-23T17:17:48.034Z,-5.05
2022-12-23T17:20:52.023Z,-5.21
2022-12-23T17:24:19.907Z,-5.49
2022-12-23T17:27:23.126Z,-5.69
2022-12-23T17:30:26.664Z,-5.07
2022-12-23T17:33:32.743Z,-4.38
2022-12-23T17:36:36.232Z,-4.60
2022-12-23T17:39:40.331Z,-4.72
2022-12-23T17:42:44.465Z,-4.29
2022-12-23T17:45:47.736Z,-4.36
2022-12-23T17:48:51.705Z,-4.82
2022-12-23T17:51:54.956Z,-4.90
2022-12-23T17:54:58.274Z,-4.50
2022-12-23T17:58:01.496Z,-4.62
2022-12-23T18:01:04.839Z,-5.25
2022-12-23T18:04:08.036Z,-4.75
2022-12-23T18:07:13.154Z,-4.11
2022-12-23T18:10:22.138Z,-3.75
2022-12-23T18:13:25.378Z,-4.05
2022-12-23T18:16:30.931Z,-4.53
2022-12-23T18:19:34.254Z,-4.02
2022-12-23T18:22:37.614Z,-3.45
2022-12-23T18:25:40.975Z,-4.05
2022-12-23T18:28:44.602Z,-4.24
2022-12-23T18:31:51.689Z,-3.37
2022-12-23T18:34:55.911Z,-2.91
2022-12-23T18:37:59.833Z,-2.58
2022-12-23T18:41:03.068Z,-3.32
2022-12-23T18:44:06.521Z,-3.11
2022-12-23T18:47:10.489Z,-3.78
2022-12-23T18:50:13.837Z,-3.67
2022-12-23T18:53:23.903Z,-3.16
2022-12-23T18:56:31.121Z,-3.41
2022-12-23T18:59:34.324Z,-3.38
2022-12-23T19:02:39.969Z,-3.14
2022-12-23T19:05:43.236Z,-2.97
2022-12-23T19:08:46.757Z,-2.45
2022-12-23T19:11:51.248Z,-2.26
2022-12-23T19:14:54.490Z,-2.74
2022-12-23T19:17:57.707Z,-2.57
2022-12-23T19:21:05.241Z,-2.66
2022-12-23T19:24:08.580Z,-2.29
2022-12-23T19:27:11.886Z,-2.84
2022-12-23T19:30:17.887Z,-2.09
2022-12-23T19:33:21.103Z,-1.70
2022-12-23T19:36:26.942Z,-1.69
2022-12-23T19:39:30.417Z,-1.59
2022-12-23T19:42:33.571Z,-1.75
2022-12-23T19:45:36.825Z,-2.42
2022-12-23T19:48:40.258Z,-2.66
2022-12-23T19:51:43.531Z,-3.34
2022-12-23T19:54:46.694Z,-2.63
2022-12-23T19:57:49.886Z,-2.61
2022-12-23T20:00:53.049Z,-2.00
2022-12-23T20:03:59.612Z,-2.33
2022-12-23T20:07:02.955Z,-1.93
2022-12-23T20:10:07.419Z,-1.36
2022-12-23T20:13:10.985Z,-2.07
2022-12-23T20:16:14.301Z,-1.93
2022-12-23T20:19:18.230Z,-1.50
2022-12-23T20:22:21.545Z,-1.67
2022-12-23T20:25:27.224Z,-2.12
2022-12-23T20:28:30.587Z,-2.46
2022-12-23T20:31:35.231Z,-1.86
2022-12-23T20:34:39.906Z,-1.65
2022-12-23T20:37:43.642Z,-1.86
2022-12-23T20:40:47.046Z,-1.01
2022-12-23T20:44:23.475Z,-0.22
2022-12-23T20:47:13.687Z,-0.41
2022-12-23T20:50:16.974Z,-0.75
2022-12-23T20:53:20.239Z,-0.13
2022-12-23T20:56:24.048Z,-0.37
2022-12-23T20:59:27.446Z,-0.80
2022-12-23T21:02:30.871Z,0.36
2022-12-23T21:05:34.172Z,0.53
2022-12-23T21:08:38.667Z,-0.80
2022-12-23T21:11:45.630Z,-1.48
2022-12-23T21:14:48.822Z,-1.43
2022-12-23T21:17:52.065Z,-1.33
2022-12-23T21:20:59.931Z,-1.60
2022-12-23T21:24:04.195Z,-1.75
2022-12-23T21:27:07.968Z,-1.53
2022-12-23T21:30:11.897Z,-0.97
2022-12-23T21:33:18.494Z,-0.82
2022-12-23T21:36:24.951Z,-1.53
2022-12-23T21:39:28.430Z,-1.54
2022-12-23T21:42:33.999Z,-1.49
2022-12-23T21:45:37.599Z,-1.48
2022-12-23T21:48:41.449Z,-1.32
2022-12-23T21:51:44.622Z,-0.66
2022-12-23T21:54:47.807Z,-1.55
2022-12-23T21:57:51.639Z,-1.14
2022-12-23T22:00:54.873Z,-0.31
2022-12-23T22:03:58.811Z,-0.49
2022-12-23T22:07:02.122Z,-1.23
2022-12-23T22:10:05.806Z,-2.23
2022-12-23T22:13:09.155Z,-2.18
2022-12-23T22:16:21.368Z,-1.00
2022-12-23T22:19:25.309Z,-1.85
2022-12-23T22:22:28.516Z,-1.64
2022-12-23T22:25:31.859Z,-1.69
2022-12-23T22:28:37.007Z,-1.55
2022-12-23T22:31:47.137Z,-1.99
2022-12-23T22:34:51.477Z,-2.03
2022-12-23T22:37:54.706Z,-2.47
2022-12-23T22:41:00.799Z,-2.21
2022-12-23T22:44:04.222Z,-2.38
2022-12-23T22:47:07.486Z,-2.58
2022-12-23T22:50:11.032Z,-3.32
2022-12-23T22:53:16.245Z,-3.05
2022-12-23T22:56:21.199Z,-3.36
2022-12-23T22:59:25.537Z,-3.56
2022-12-23T23:02:28.922Z,-2.95
2022-12-23T23:05:32.349Z,-3.13
2022-12-23T23:08:36.171Z,-3.16
2022-12-23T23:11:40.352Z,-3.21
2022-12-23T23:14:43.575Z,-3.17
2022-12-23T23:17:46.824Z,-3.29
2022-12-23T23:20:50.434Z,-3.55
2022-12-23T23:23:53.804Z,-3.36
2022-12-23T23:26:57.117Z,-3.67
2022-12-23T23:30:00.396Z,-3.59
2022-12-23T23:33:03.699Z,-3.51
2022-12-23T23:36:07.402Z,-3.42
2022-12-23T23:39:15.040Z,-3.69
2022-12-23T23:42:18.267Z,-3.55
2022-12-23T23:45:21.738Z,-3.58
2022-12-23T23:48:27.329Z,-4.01
2022-12-23T23:51:30.879Z,-3.49
2022-12-23T23:54:34.133Z,-3.82
2022-12-23T23:57:38.502Z,-4.05
